Aérodrome :
LOGIN :

S'inscrire | Disclaimer

   EN    FR    IT 

 










Légende :    VFR   VFR Marginal   IFR   IFR Intensif   IFR Très Intensif
Visi : 
Plafond : 
>= 8 km
>= 3000ft
5 à 8 km
1000 à 3000 ft
1500m à 5 km
500 à 1000 ft
800 à 1500m
200 à 500 ft
< 800m
< 200 ft
Symboles :   Orages  Brouillard  Fortes neiges  Fortes précipitations  Vent > 20 kt
SIGMETs :   Divers  Orages  Givrage  Turbulence  Onde Orograph.  Cendres Volcan.






- Altitude de l'aérodrome : 286 ft
- Code IATA : FFD


EGVA - RAF Fairford

DERNIER METAR :
  • 090331Z AUTO 23011KT 9999 OVC009 15/15 A2987 RMK AO2 SLP116 $

METARs EXPIRÉS :
  • 090256Z AUTO 23010G17KT 9999 OVC010 16/15 A2986 RMK AO2 SLP113 60000 T01580153 56014 $
  • 090241Z AUTO 23010KT 9999 BKN013 OVC021 16/15 A2986 RMK AO2 CIG 013V021 BKN V SCT SLP113 $
  • 090236Z AUTO 23011KT 9999 SCT013 OVC021 16/15 A2986 RMK AO2 CIG 017 RWY09 SLP113 $
  • 090231Z AUTO 23010KT 9999 BKN019 OVC025 16/15 A2986 RMK AO2 SLP113 $
  • 090211Z AUTO 22008KT 9999 BKN026 BKN033 BKN070 16/16 A2987 RMK AO2 CIG 026V042 SLP116 $
  • 090156Z AUTO 22009KT 9999 SCT027 BKN042 OVC070 16/16 A2987 RMK AO2 SLP116 T01590156 $
  • 090116Z AUTO 22008KT 9999 FEW012 SCT017 SCT022 BKN033 OVC045 16/16 A2989 RMK AO2 SLP123 $
  • 090111Z AUTO 22007KT 9999 FEW012 SCT017 BKN022 OVC034 16/16 A2989 RMK AO2 CIG 022V034 SLP123 $
  • 090056Z AUTO 21008KT 9999 FEW012 SCT017 OVC034 16/16 A2989 RMK AO2 RAE00 SLP123 P0000 T01570157 $

Prévision TAF périmée.



MET'MAP, la Météo Aéronautique d'un coup d'oeil ! - Copyright ORBIFLY Décembre 2007 - Disclaimer

ORBIFLY MET'MAP TEAM :

Programmation & Développement : Alexandra Zaïnal
Sur une idée originale de : Baudouin d'Aumeries
Assistance à la programmation : Marc-Olivier Méhu
Soutien technique & logistique : Manuel Goepfert

Contact : metmap@orbifly.com




SOURCES & CREDITS :

   NOAA